sensor_id;sensor_type;location;lat;lon;timestamp;pressure;altitude;pressure_sealevel;temperature;humidity
11049;BME280;5577;42.706;23.160;2022-08-21T00:02:18;93731.97;;;18.59;100.00
11049;BME280;5577;42.706;23.160;2022-08-21T00:05:03;93724.00;;;18.55;100.00
11049;BME280;5577;42.706;23.160;2022-08-21T00:07:48;93731.66;;;18.53;100.00
11049;BME280;5577;42.706;23.160;2022-08-21T00:10:33;93736.25;;;18.53;100.00
11049;BME280;5577;42.706;23.160;2022-08-21T00:13:18;93729.38;;;18.52;100.00
11049;BME280;5577;42.706;23.160;2022-08-21T00:16:03;93717.16;;;18.51;100.00
11049;BME280;5577;42.706;23.160;2022-08-21T00:18:47;93703.91;;;18.40;100.00
11049;BME280;5577;42.706;23.160;2022-08-21T00:21:33;93705.38;;;18.45;100.00
11049;BME280;5577;42.706;23.160;2022-08-21T00:24:19;93717.47;;;18.56;100.00
11049;BME280;5577;42.706;23.160;2022-08-21T00:27:03;93716.69;;;18.56;100.00
11049;BME280;5577;42.706;23.160;2022-08-21T00:29:47;93718.22;;;18.57;100.00
11049;BME280;5577;42.706;23.160;2022-08-21T00:32:32;93716.34;;;18.54;100.00
11049;BME280;5577;42.706;23.160;2022-08-21T00:35:20;93687.47;;;18.38;100.00
11049;BME280;5577;42.706;23.160;2022-08-21T00:38:05;93718.94;;;18.61;100.00
11049;BME280;5577;42.706;23.160;2022-08-21T00:40:54;93718.53;;;18.62;100.00
11049;BME280;5577;42.706;23.160;2022-08-21T00:43:39;93716.28;;;18.57;100.00
11049;BME280;5577;42.706;23.160;2022-08-21T00:46:24;93709.41;;;18.56;100.00
11049;BME280;5577;42.706;23.160;2022-08-21T00:49:09;93706.34;;;18.58;100.00
11049;BME280;5577;42.706;23.160;2022-08-21T00:51:57;93703.75;;;18.51;100.00
11049;BME280;5577;42.706;23.160;2022-08-21T00:54:43;93715.66;;;18.50;100.00
11049;BME280;5577;42.706;23.160;2022-08-21T00:57:31;93709.22;;;18.44;100.00
11049;BME280;5577;42.706;23.160;2022-08-21T01:00:22;93671.69;;;18.17;100.00
11049;BME280;5577;42.706;23.160;2022-08-21T01:03:11;93711.81;;;18.51;100.00
11049;BME280;5577;42.706;23.160;2022-08-21T01:05:55;93704.16;;;18.49;100.00
11049;BME280;5577;42.706;23.160;2022-08-21T01:08:39;93706.06;;;18.49;100.00
11049;BME280;5577;42.706;23.160;2022-08-21T01:11:24;93653.56;;;18.25;100.00
11049;BME280;5577;42.706;23.160;2022-08-21T01:14:09;93694.25;;;18.46;100.00
11049;BME280;5577;42.706;23.160;2022-08-21T01:16:56;93680.53;;;18.41;100.00
11049;BME280;5577;42.706;23.160;2022-08-21T01:19:42;93692.38;;;18.43;100.00
11049;BME280;5577;42.706;23.160;2022-08-21T01:22:27;93685.13;;;18.40;100.00
11049;BME280;5577;42.706;23.160;2022-08-21T01:25:13;93677.09;;;18.40;100.00
11049;BME280;5577;42.706;23.160;2022-08-21T01:28:02;93677.50;;;18.39;100.00
11049;BME280;5577;42.706;23.160;2022-08-21T01:30:50;93671.06;;;18.33;100.00
11049;BME280;5577;42.706;23.160;2022-08-21T01:33:35;93671.06;;;18.33;100.00
11049;BME280;5577;42.706;23.160;2022-08-21T01:36:20;93671.06;;;18.33;100.00
11049;BME280;5577;42.706;23.160;2022-08-21T01:39:05;93676.84;;;18.31;100.00
11049;BME280;5577;42.706;23.160;2022-08-21T01:41:49;93678.72;;;18.34;100.00
11049;BME280;5577;42.706;23.160;2022-08-21T01:44:33;93676.44;;;18.33;100.00
11049;BME280;5577;42.706;23.160;2022-08-21T01:47:17;93683.03;;;18.25;100.00
11049;BME280;5577;42.706;23.160;2022-08-21T01:50:05;93679.22;;;18.26;100.00
11049;BME280;5577;42.706;23.160;2022-08-21T01:52:49;93676.94;;;18.24;100.00
11049;BME280;5577;42.706;23.160;2022-08-21T01:55:34;93678.06;;;18.23;100.00
11049;BME280;5577;42.706;23.160;2022-08-21T01:58:18;93679.63;;;18.24;100.00
11049;BME280;5577;42.706;23.160;2022-08-21T02:01:03;93674.25;;;18.24;100.00
11049;BME280;5577;42.706;23.160;2022-08-21T02:03:47;93668.13;;;18.24;100.00
11049;BME280;5577;42.706;23.160;2022-08-21T02:06:31;93674.66;;;18.23;100.00
11049;BME280;5577;42.706;23.160;2022-08-21T02:09:16;93681.22;;;18.18;100.00
11049;BME280;5577;42.706;23.160;2022-08-21T02:12:00;93676.72;;;18.12;100.00
11049;BME280;5577;42.706;23.160;2022-08-21T02:14:43;93681.78;;;18.06;100.00
11049;BME280;5577;42.706;23.160;2022-08-21T02:17:37;93683.72;;;18.02;100.00
11049;BME280;5577;42.706;23.160;2022-08-21T02:20:22;93687.16;;;18.03;100.00
11049;BME280;5577;42.706;23.160;2022-08-21T02:23:08;93684.19;;;17.97;100.00
11049;BME280;5577;42.706;23.160;2022-08-21T02:25:58;93689.63;;;17.90;100.00
11049;BME280;5577;42.706;23.160;2022-08-21T02:28:42;93685.63;;;17.72;100.00
11049;BME280;5577;42.706;23.160;2022-08-21T02:31:27;93691.06;;;17.68;100.00
11049;BME280;5577;42.706;23.160;2022-08-21T02:34:11;93689.50;;;17.71;100.00
11049;BME280;5577;42.706;23.160;2022-08-21T02:36:55;93686.81;;;17.71;100.00
11049;BME280;5577;42.706;23.160;2022-08-21T02:39:39;93699.03;;;17.72;100.00
11049;BME280;5577;42.706;23.160;2022-08-21T02:42:23;93691.41;;;17.70;100.00
11049;BME280;5577;42.706;23.160;2022-08-21T02:45:07;93661.06;;;17.50;100.00
11049;BME280;5577;42.706;23.160;2022-08-21T02:47:58;93697.19;;;17.65;100.00
11049;BME280;5577;42.706;23.160;2022-08-21T02:50:47;93681.31;;;17.51;100.00
11049;BME280;5577;42.706;23.160;2022-08-21T02:53:32;93697.66;;;17.60;100.00
11049;BME280;5577;42.706;23.160;2022-08-21T02:56:19;93706.03;;;17.62;100.00
11049;BME280;5577;42.706;23.160;2022-08-21T02:59:04;93705.69;;;17.60;100.00
11049;BME280;5577;42.706;23.160;2022-08-21T03:01:48;93707.59;;;17.60;100.00
11049;BME280;5577;42.706;23.160;2022-08-21T03:04:32;93706.56;;;17.50;100.00
11049;BME280;5577;42.706;23.160;2022-08-21T03:07:16;93703.94;;;17.40;100.00
11049;BME280;5577;42.706;23.160;2022-08-21T03:10:00;93714.25;;;17.41;100.00
11049;BME280;5577;42.706;23.160;2022-08-21T03:12:45;93706.63;;;17.43;100.00
11049;BME280;5577;42.706;23.160;2022-08-21T03:15:29;93704.28;;;17.45;100.00
11049;BME280;5577;42.706;23.160;2022-08-21T03:18:15;93706.56;;;17.47;100.00
11049;BME280;5577;42.706;23.160;2022-08-21T03:20:59;93699.31;;;17.47;100.00
11049;BME280;5577;42.706;23.160;2022-08-21T03:23:43;93701.22;;;17.47;100.00
11049;BME280;5577;42.706;23.160;2022-08-21T03:26:27;93703.81;;;17.54;100.00
11049;BME280;5577;42.706;23.160;2022-08-21T03:29:12;93703.88;;;17.50;100.00
11049;BME280;5577;42.706;23.160;2022-08-21T03:31:56;93704.22;;;17.52;100.00
11049;BME280;5577;42.706;23.160;2022-08-21T03:34:40;93703.50;;;17.48;100.00
11049;BME280;5577;42.706;23.160;2022-08-21T03:37:24;93687.44;;;17.48;100.00
11049;BME280;5577;42.706;23.160;2022-08-21T03:40:09;93700.31;;;17.60;100.00
11049;BME280;5577;42.706;23.160;2022-08-21T03:42:53;93680.19;;;17.49;100.00
11049;BME280;5577;42.706;23.160;2022-08-21T03:45:38;93693.16;;;17.50;100.00
11049;BME280;5577;42.706;23.160;2022-08-21T03:48:23;93699.25;;;17.54;100.00
11049;BME280;5577;42.706;23.160;2022-08-21T03:51:07;93702.31;;;17.53;100.00
11049;BME280;5577;42.706;23.160;2022-08-21T03:53:51;93676.16;;;17.30;100.00
11049;BME280;5577;42.706;23.160;2022-08-21T03:56:36;93712.25;;;17.52;100.00
11049;BME280;5577;42.706;23.160;2022-08-21T03:59:19;93708.84;;;17.52;100.00
11049;BME280;5577;42.706;23.160;2022-08-21T04:02:05;93713.41;;;17.51;100.00
11049;BME280;5577;42.706;23.160;2022-08-21T04:04:50;93714.25;;;17.45;100.00
11049;BME280;5577;42.706;23.160;2022-08-21T04:07:34;93716.50;;;17.50;100.00
11049;BME280;5577;42.706;23.160;2022-08-21T04:10:19;93709.19;;;17.54;100.00
11049;BME280;5577;42.706;23.160;2022-08-21T04:13:05;93715.97;;;17.62;100.00
11049;BME280;5577;42.706;23.160;2022-08-21T04:15:49;93714.91;;;17.56;100.00
11049;BME280;5577;42.706;23.160;2022-08-21T04:18:33;93721.00;;;17.56;100.00
11049;BME280;5577;42.706;23.160;2022-08-21T04:21:17;93725.16;;;17.61;100.00
11049;BME280;5577;42.706;23.160;2022-08-21T04:24:02;93727.84;;;17.61;100.00
11049;BME280;5577;42.706;23.160;2022-08-21T04:26:46;93712.63;;;17.54;100.00
11049;BME280;5577;42.706;23.160;2022-08-21T04:29:30;93727.50;;;17.55;100.00
11049;BME280;5577;42.706;23.160;2022-08-21T04:32:23;93691.81;;;17.32;100.00
11049;BME280;5577;42.706;23.160;2022-08-21T04:35:09;93724.13;;;17.51;100.00
11049;BME280;5577;42.706;23.160;2022-08-21T04:37:54;93727.50;;;17.59;100.00
11049;BME280;5577;42.706;23.160;2022-08-21T04:40:38;93731.22;;;17.65;100.00
11049;BME280;5577;42.706;23.160;2022-08-21T04:43:22;93729.72;;;17.64;100.00
11049;BME280;5577;42.706;23.160;2022-08-21T04:46:07;93726.66;;;17.62;100.00
11049;BME280;5577;42.706;23.160;2022-08-21T04:48:51;93724.66;;;17.73;100.00
11049;BME280;5577;42.706;23.160;2022-08-21T04:51:35;93729.16;;;17.79;100.00
11049;BME280;5577;42.706;23.160;2022-08-21T04:54:21;93707.06;;;17.72;100.00
11049;BME280;5577;42.706;23.160;2022-08-21T04:57:07;93729.44;;;17.88;100.00
11049;BME280;5577;42.706;23.160;2022-08-21T04:59:53;93727.88;;;17.91;100.00
11049;BME280;5577;42.706;23.160;2022-08-21T05:02:39;93722.44;;;17.98;100.00
11049;BME280;5577;42.706;23.160;2022-08-21T05:05:24;93727.03;;;17.97;100.00
11049;BME280;5577;42.706;23.160;2022-08-21T05:08:12;93723.25;;;17.95;100.00
11049;BME280;5577;42.706;23.160;2022-08-21T05:10:57;93722.84;;;17.96;100.00
11049;BME280;5577;42.706;23.160;2022-08-21T05:13:42;93724.72;;;17.99;100.00
11049;BME280;5577;42.706;23.160;2022-08-21T05:16:26;93722.75;;;18.03;100.00
11049;BME280;5577;42.706;23.160;2022-08-21T05:19:11;93735.59;;;18.15;100.00
11049;BME280;5577;42.706;23.160;2022-08-21T05:21:55;93702.13;;;18.00;100.00
11049;BME280;5577;42.706;23.160;2022-08-21T05:24:39;93720.50;;;18.28;100.00
11049;BME280;5577;42.706;23.160;2022-08-21T05:27:23;93727.69;;;18.38;100.00
11049;BME280;5577;42.706;23.160;2022-08-21T05:30:08;93713.81;;;18.43;100.00
11049;BME280;5577;42.706;23.160;2022-08-21T05:45:36;93704.28;;;18.92;100.00
11049;BME280;5577;42.706;23.160;2022-08-21T05:48:23;93702.44;;;18.85;100.00
11049;BME280;5577;42.706;23.160;2022-08-21T05:51:11;93674.16;;;18.58;100.00
11049;BME280;5577;42.706;23.160;2022-08-21T05:53:55;93711.88;;;18.70;100.00
11049;BME280;5577;42.706;23.160;2022-08-21T05:56:39;93708.09;;;18.68;100.00
11049;BME280;5577;42.706;23.160;2022-08-21T05:59:23;93702.34;;;18.69;100.00
11049;BME280;5577;42.706;23.160;2022-08-21T06:02:07;93705.75;;;18.70;100.00
11049;BME280;5577;42.706;23.160;2022-08-21T06:04:56;93710.31;;;18.73;100.00
11049;BME280;5577;42.706;23.160;2022-08-21T06:07:41;93718.31;;;18.76;100.00
11049;BME280;5577;42.706;23.160;2022-08-21T06:10:25;93712.47;;;18.81;100.00
11049;BME280;5577;42.706;23.160;2022-08-21T06:13:10;93717.31;;;18.90;100.00
11049;BME280;5577;42.706;23.160;2022-08-21T06:16:24;93708.47;;;18.93;100.00
11049;BME280;5577;42.706;23.160;2022-08-21T06:19:08;93709.75;;;19.08;100.00
11049;BME280;5577;42.706;23.160;2022-08-21T06:21:52;93702.28;;;19.19;100.00
11049;BME280;5577;42.706;23.160;2022-08-21T06:24:36;93701.66;;;19.34;100.00
11049;BME280;5577;42.706;23.160;2022-08-21T06:27:20;93706.59;;;19.36;100.00
11049;BME280;5577;42.706;23.160;2022-08-21T06:30:05;93677.09;;;19.36;100.00
11049;BME280;5577;42.706;23.160;2022-08-21T06:32:49;93702.31;;;19.81;100.00
11049;BME280;5577;42.706;23.160;2022-08-21T06:35:34;93695.69;;;19.86;100.00
11049;BME280;5577;42.706;23.160;2022-08-21T06:38:18;93695.06;;;19.78;100.00
11049;BME280;5577;42.706;23.160;2022-08-21T06:41:03;93693.06;;;19.82;100.00
11049;BME280;5577;42.706;23.160;2022-08-21T06:43:48;93692.31;;;19.82;100.00
11049;BME280;5577;42.706;23.160;2022-08-21T06:46:31;93687.38;;;19.80;100.00
11049;BME280;5577;42.706;23.160;2022-08-21T06:49:15;93690.47;;;19.78;100.00
11049;BME280;5577;42.706;23.160;2022-08-21T06:52:00;93696.84;;;19.84;100.00
11049;BME280;5577;42.706;23.160;2022-08-21T06:54:44;93689.97;;;19.83;100.00
11049;BME280;5577;42.706;23.160;2022-08-21T06:57:29;93687.78;;;19.98;100.00
11049;BME280;5577;42.706;23.160;2022-08-21T07:00:13;93686.03;;;20.08;100.00
11049;BME280;5577;42.706;23.160;2022-08-21T07:02:57;93672.66;;;20.24;100.00
11049;BME280;5577;42.706;23.160;2022-08-21T07:05:42;93694.28;;;20.52;100.00
11049;BME280;5577;42.706;23.160;2022-08-21T07:08:27;93699.09;;;20.45;100.00
11049;BME280;5577;42.706;23.160;2022-08-21T07:11:15;93688.13;;;20.36;100.00
11049;BME280;5577;42.706;23.160;2022-08-21T07:14:01;93693.31;;;20.27;100.00
11049;BME280;5577;42.706;23.160;2022-08-21T07:16:45;93690.59;;;20.11;100.00
11049;BME280;5577;42.706;23.160;2022-08-21T07:19:30;93688.25;;;20.13;100.00
11049;BME280;5577;42.706;23.160;2022-08-21T07:22:15;93703.22;;;20.14;100.00
11049;BME280;5577;42.706;23.160;2022-08-21T07:25:00;93704.56;;;20.02;100.00
11049;BME280;5577;42.706;23.160;2022-08-21T07:27:44;93700.63;;;20.07;100.00
11049;BME280;5577;42.706;23.160;2022-08-21T07:30:28;93688.50;;;20.18;100.00
11049;BME280;5577;42.706;23.160;2022-08-21T07:33:12;93679.00;;;20.49;100.00
11049;BME280;5577;42.706;23.160;2022-08-21T07:35:56;93682.66;;;20.91;100.00
11049;BME280;5577;42.706;23.160;2022-08-21T07:38:41;93665.84;;;21.03;100.00
11049;BME280;5577;42.706;23.160;2022-08-21T07:41:28;93660.75;;;21.21;100.00
11049;BME280;5577;42.706;23.160;2022-08-21T07:44:12;93645.00;;;21.35;100.00
11049;BME280;5577;42.706;23.160;2022-08-21T07:46:56;93655.63;;;21.55;100.00
11049;BME280;5577;42.706;23.160;2022-08-21T07:49:41;93636.66;;;21.58;100.00
11049;BME280;5577;42.706;23.160;2022-08-21T07:52:25;93659.69;;;21.47;100.00
11049;BME280;5577;42.706;23.160;2022-08-21T07:55:14;93648.31;;;21.27;100.00
11049;BME280;5577;42.706;23.160;2022-08-21T07:57:59;93655.97;;;21.12;100.00
11049;BME280;5577;42.706;23.160;2022-08-21T08:00:44;93652.13;;;20.97;100.00
11049;BME280;5577;42.706;23.160;2022-08-21T08:03:28;93657.84;;;20.83;100.00
11049;BME280;5577;42.706;23.160;2022-08-21T08:06:12;93658.84;;;20.73;100.00
11049;BME280;5577;42.706;23.160;2022-08-21T08:09:00;93655.50;;;20.85;100.00
11049;BME280;5577;42.706;23.160;2022-08-21T08:11:46;93661.03;;;20.94;100.00
11049;BME280;5577;42.706;23.160;2022-08-21T08:14:30;93658.41;;;21.07;100.00
11049;BME280;5577;42.706;23.160;2022-08-21T08:17:15;93651.22;;;21.32;100.00
11049;BME280;5577;42.706;23.160;2022-08-21T08:19:59;93649.19;;;21.65;100.00
11049;BME280;5577;42.706;23.160;2022-08-21T08:22:47;93642.34;;;21.48;100.00
11049;BME280;5577;42.706;23.160;2022-08-21T08:25:31;93641.16;;;21.49;100.00
11049;BME280;5577;42.706;23.160;2022-08-21T08:28:15;93646.25;;;21.47;100.00
11049;BME280;5577;42.706;23.160;2022-08-21T08:31:00;93649.41;;;21.58;100.00
11049;BME280;5577;42.706;23.160;2022-08-21T08:33:44;93638.25;;;21.43;100.00
11049;BME280;5577;42.706;23.160;2022-08-21T08:36:34;93648.16;;;21.46;100.00
11049;BME280;5577;42.706;23.160;2022-08-21T08:39:18;93621.84;;;21.38;100.00
11049;BME280;5577;42.706;23.160;2022-08-21T08:42:14;93640.50;;;21.45;100.00
11049;BME280;5577;42.706;23.160;2022-08-21T08:45:07;93641.31;;;21.58;100.00
11049;BME280;5577;42.706;23.160;2022-08-21T08:47:56;93609.50;;;21.53;100.00
11049;BME280;5577;42.706;23.160;2022-08-21T08:53:42;93636.47;;;21.65;100.00
11049;BME280;5577;42.706;23.160;2022-08-21T08:56:31;93633.34;;;21.67;100.00
11049;BME280;5577;42.706;23.160;2022-08-21T08:59:23;93632.97;;;21.81;100.00
11049;BME280;5577;42.706;23.160;2022-08-21T09:02:11;93636.69;;;21.71;100.00
11049;BME280;5577;42.706;23.160;2022-08-21T09:04:56;93635.63;;;21.68;100.00
11049;BME280;5577;42.706;23.160;2022-08-21T09:11:15;93618.06;;;22.17;100.00
11049;BME280;5577;42.706;23.160;2022-08-21T09:17:32;93611.50;;;22.56;100.00
11049;BME280;5577;42.706;23.160;2022-08-21T09:20:41;93600.19;;;22.95;100.00
11049;BME280;5577;42.706;23.160;2022-08-21T09:23:49;93596.78;;;23.16;100.00
11049;BME280;5577;42.706;23.160;2022-08-21T09:26:49;93561.78;;;23.47;100.00
11049;BME280;5577;42.706;23.160;2022-08-21T09:29:38;93529.25;;;23.29;100.00
11049;BME280;5577;42.706;23.160;2022-08-21T09:32:26;93572.63;;;24.08;100.00
11049;BME280;5577;42.706;23.160;2022-08-21T09:35:16;93581.19;;;24.46;100.00
11049;BME280;5577;42.706;23.160;2022-08-21T09:38:05;93564.91;;;24.76;100.00
11049;BME280;5577;42.706;23.160;2022-08-21T09:40:59;93558.31;;;25.04;100.00
11049;BME280;5577;42.706;23.160;2022-08-21T09:43:52;93552.59;;;24.84;100.00
11049;BME280;5577;42.706;23.160;2022-08-21T09:46:37;93554.88;;;25.13;100.00
11049;BME280;5577;42.706;23.160;2022-08-21T09:49:33;93548.25;;;25.14;100.00
11049;BME280;5577;42.706;23.160;2022-08-21T09:52:23;93552.91;;;24.77;100.00
11049;BME280;5577;42.706;23.160;2022-08-21T09:55:18;93556.84;;;24.46;100.00
11049;BME280;5577;42.706;23.160;2022-08-21T09:58:31;93545.75;;;24.04;100.00
11049;BME280;5577;42.706;23.160;2022-08-21T10:01:21;93544.34;;;23.69;100.00
11049;BME280;5577;42.706;23.160;2022-08-21T10:04:09;93542.47;;;23.57;100.00
11049;BME280;5577;42.706;23.160;2022-08-21T10:06:54;93546.13;;;23.42;100.00
11049;BME280;5577;42.706;23.160;2022-08-21T10:09:39;93542.19;;;23.64;100.00
11049;BME280;5577;42.706;23.160;2022-08-21T10:12:33;93540.41;;;23.92;100.00
11049;BME280;5577;42.706;23.160;2022-08-21T10:19:00;93530.56;;;24.46;100.00
11049;BME280;5577;42.706;23.160;2022-08-21T10:36:31;93515.25;;;26.11;100.00
11049;BME280;5577;42.706;23.160;2022-08-21T10:39:35;93490.69;;;26.47;100.00
11049;BME280;5577;42.706;23.160;2022-08-21T10:45:09;93499.97;;;26.55;100.00
11049;BME280;5577;42.706;23.160;2022-08-21T10:48:04;93499.84;;;26.50;100.00
11049;BME280;5577;42.706;23.160;2022-08-21T10:50:52;93487.09;;;26.88;100.00
11049;BME280;5577;42.706;23.160;2022-08-21T10:56:33;93488.81;;;27.15;100.00
11049;BME280;5577;42.706;23.160;2022-08-21T11:02:37;93480.53;;;27.33;98.23
11049;BME280;5577;42.706;23.160;2022-08-21T11:05:57;93476.97;;;27.41;100.00
11049;BME280;5577;42.706;23.160;2022-08-21T11:08:46;93472.16;;;26.69;100.00
11049;BME280;5577;42.706;23.160;2022-08-21T11:11:49;93473.69;;;26.38;100.00
11049;BME280;5577;42.706;23.160;2022-08-21T11:14:46;93468.09;;;26.09;100.00
11049;BME280;5577;42.706;23.160;2022-08-21T11:17:43;93467.53;;;25.63;100.00
11049;BME280;5577;42.706;23.160;2022-08-21T11:20:40;93472.56;;;25.38;100.00
11049;BME280;5577;42.706;23.160;2022-08-21T11:23:46;93460.91;;;25.55;100.00
11049;BME280;5577;42.706;23.160;2022-08-21T11:26:53;93465.03;;;25.33;100.00
11049;BME280;5577;42.706;23.160;2022-08-21T11:29:47;93451.16;;;25.49;100.00
11049;BME280;5577;42.706;23.160;2022-08-21T11:36:08;93448.22;;;26.97;100.00
11049;BME280;5577;42.706;23.160;2022-08-21T11:51:28;93456.25;;;25.56;100.00
11049;BME280;5577;42.706;23.160;2022-08-21T11:54:46;93455.41;;;25.41;100.00
11049;BME280;5577;42.706;23.160;2022-08-21T12:01:03;93452.38;;;25.21;100.00
11049;BME280;5577;42.706;23.160;2022-08-21T12:04:01;93403.53;;;24.97;100.00
11049;BME280;5577;42.706;23.160;2022-08-21T12:06:46;93435.66;;;25.40;100.00
11049;BME280;5577;42.706;23.160;2022-08-21T12:09:35;93435.16;;;25.60;100.00
11049;BME280;5577;42.706;23.160;2022-08-21T12:12:30;93427.91;;;25.66;100.00
11049;BME280;5577;42.706;23.160;2022-08-21T12:18:19;93422.59;;;25.30;100.00
11049;BME280;5577;42.706;23.160;2022-08-21T12:21:19;93415.53;;;25.14;100.00
11049;BME280;5577;42.706;23.160;2022-08-21T12:24:05;93441.84;;;25.23;100.00
11049;BME280;5577;42.706;23.160;2022-08-21T12:27:26;93438.66;;;25.24;100.00
11049;BME280;5577;42.706;23.160;2022-08-21T12:30:39;93443.84;;;24.95;100.00
11049;BME280;5577;42.706;23.160;2022-08-21T12:33:30;93412.13;;;24.68;100.00
11049;BME280;5577;42.706;23.160;2022-08-21T12:36:20;93443.41;;;24.87;100.00
11049;BME280;5577;42.706;23.160;2022-08-21T12:39:13;93438.88;;;25.02;100.00
11049;BME280;5577;42.706;23.160;2022-08-21T12:42:17;93441.59;;;24.84;100.00
11049;BME280;5577;42.706;23.160;2022-08-21T12:45:14;93423.84;;;24.74;100.00
11049;BME280;5577;42.706;23.160;2022-08-21T12:51:16;93425.81;;;24.65;100.00
11049;BME280;5577;42.706;23.160;2022-08-21T12:54:00;93432.09;;;24.62;100.00
11049;BME280;5577;42.706;23.160;2022-08-21T12:56:56;93439.47;;;24.52;100.00
11049;BME280;5577;42.706;23.160;2022-08-21T12:59:40;93435.97;;;24.43;100.00
11049;BME280;5577;42.706;23.160;2022-08-21T13:02:37;93432.38;;;24.46;100.00
11049;BME280;5577;42.706;23.160;2022-08-21T13:05:36;93431.03;;;24.41;100.00
11049;BME280;5577;42.706;23.160;2022-08-21T13:08:22;93410.88;;;24.24;100.00
11049;BME280;5577;42.706;23.160;2022-08-21T13:11:10;93442.91;;;24.44;100.00
11049;BME280;5577;42.706;23.160;2022-08-21T13:13:55;93436.13;;;24.30;100.00
11049;BME280;5577;42.706;23.160;2022-08-21T13:16:39;93433.25;;;24.25;100.00
11049;BME280;5577;42.706;23.160;2022-08-21T13:19:24;93436.84;;;24.22;100.00
11049;BME280;5577;42.706;23.160;2022-08-21T13:22:14;93424.56;;;24.30;100.00
11049;BME280;5577;42.706;23.160;2022-08-21T13:24:58;93430.09;;;24.26;100.00
11049;BME280;5577;42.706;23.160;2022-08-21T13:27:44;93406.66;;;24.14;100.00
11049;BME280;5577;42.706;23.160;2022-08-21T13:30:31;93407.28;;;24.18;100.00
11049;BME280;5577;42.706;23.160;2022-08-21T13:33:24;93411.03;;;24.12;100.00
11049;BME280;5577;42.706;23.160;2022-08-21T13:36:23;93414.94;;;24.20;100.00
11049;BME280;5577;42.706;23.160;2022-08-21T13:39:11;93380.19;;;24.00;100.00
11049;BME280;5577;42.706;23.160;2022-08-21T13:41:57;93411.50;;;24.28;100.00
11049;BME280;5577;42.706;23.160;2022-08-21T13:44:44;93363.50;;;23.93;100.00
11049;BME280;5577;42.706;23.160;2022-08-21T13:47:29;93410.13;;;24.24;100.00
11049;BME280;5577;42.706;23.160;2022-08-21T13:50:14;93409.22;;;24.36;100.00
11049;BME280;5577;42.706;23.160;2022-08-21T13:53:02;93402.75;;;24.33;100.00
11049;BME280;5577;42.706;23.160;2022-08-21T13:55:46;93365.34;;;24.05;100.00
11049;BME280;5577;42.706;23.160;2022-08-21T13:58:45;93412.84;;;24.42;100.00
11049;BME280;5577;42.706;23.160;2022-08-21T14:01:52;93397.81;;;24.50;100.00
11049;BME280;5577;42.706;23.160;2022-08-21T14:04:47;93397.06;;;24.49;100.00
11049;BME280;5577;42.706;23.160;2022-08-21T14:07:38;93400.69;;;24.64;100.00
11049;BME280;5577;42.706;23.160;2022-08-21T14:10:23;93401.44;;;24.74;100.00
11049;BME280;5577;42.706;23.160;2022-08-21T14:13:41;93406.25;;;24.97;100.00
11049;BME280;5577;42.706;23.160;2022-08-21T14:16:29;93407.56;;;25.11;100.00
11049;BME280;5577;42.706;23.160;2022-08-21T14:19:36;93408.41;;;25.26;100.00
11049;BME280;5577;42.706;23.160;2022-08-21T14:22:40;93405.41;;;25.33;100.00
11049;BME280;5577;42.706;23.160;2022-08-21T14:28:48;93406.25;;;24.97;100.00
11049;BME280;5577;42.706;23.160;2022-08-21T14:31:32;93412.22;;;24.47;100.00
11049;BME280;5577;42.706;23.160;2022-08-21T14:34:18;93420.44;;;23.98;100.00
11049;BME280;5577;42.706;23.160;2022-08-21T14:37:01;93422.13;;;23.65;100.00
11049;BME280;5577;42.706;23.160;2022-08-21T14:39:46;93424.88;;;23.44;100.00
11049;BME280;5577;42.706;23.160;2022-08-21T14:42:30;93415.94;;;23.25;100.00
11049;BME280;5577;42.706;23.160;2022-08-21T14:45:22;93418.75;;;23.00;100.00
11049;BME280;5577;42.706;23.160;2022-08-21T14:48:07;93396.19;;;22.85;100.00
11049;BME280;5577;42.706;23.160;2022-08-21T14:50:52;93389.75;;;22.92;100.00
11049;BME280;5577;42.706;23.160;2022-08-21T14:53:35;93387.88;;;23.23;100.00
11049;BME280;5577;42.706;23.160;2022-08-21T14:56:19;93384.13;;;23.60;100.00
11049;BME280;5577;42.706;23.160;2022-08-21T14:59:06;93382.84;;;23.91;100.00
11049;BME280;5577;42.706;23.160;2022-08-21T15:01:50;93380.06;;;24.22;100.00
11049;BME280;5577;42.706;23.160;2022-08-21T15:04:35;93371.19;;;24.12;100.00
11049;BME280;5577;42.706;23.160;2022-08-21T15:07:19;93363.69;;;24.07;100.00
11049;BME280;5577;42.706;23.160;2022-08-21T15:10:04;93322.75;;;23.78;100.00
11049;BME280;5577;42.706;23.160;2022-08-21T15:12:48;93349.34;;;23.89;100.00
11049;BME280;5577;42.706;23.160;2022-08-21T15:15:39;93341.53;;;23.82;100.00
11049;BME280;5577;42.706;23.160;2022-08-21T15:18:26;93338.38;;;23.83;100.00
11049;BME280;5577;42.706;23.160;2022-08-21T15:21:11;93301.69;;;23.64;100.00
11049;BME280;5577;42.706;23.160;2022-08-21T15:23:55;93324.72;;;23.87;100.00
11049;BME280;5577;42.706;23.160;2022-08-21T15:26:39;93320.38;;;23.89;100.00
11049;BME280;5577;42.706;23.160;2022-08-21T15:29:23;93322.63;;;23.91;100.00
11049;BME280;5577;42.706;23.160;2022-08-21T15:35:03;93321.53;;;23.61;100.00
11049;BME280;5577;42.706;23.160;2022-08-21T15:37:47;93321.09;;;23.72;100.00
11049;BME280;5577;42.706;23.160;2022-08-21T15:40:34;93333.44;;;23.91;100.00
11049;BME280;5577;42.706;23.160;2022-08-21T15:43:26;93332.97;;;23.92;100.00
11049;BME280;5577;42.706;23.160;2022-08-21T15:46:13;93339.47;;;24.04;100.00
11049;BME280;5577;42.706;23.160;2022-08-21T15:48:57;93346.25;;;24.08;100.00
11049;BME280;5577;42.706;23.160;2022-08-21T15:51:41;93343.56;;;24.17;100.00
11049;BME280;5577;42.706;23.160;2022-08-21T15:54:26;93336.94;;;24.09;100.00
11049;BME280;5577;42.706;23.160;2022-08-21T15:57:16;93347.44;;;23.98;100.00
11049;BME280;5577;42.706;23.160;2022-08-21T16:00:07;93344.13;;;23.94;100.00